Time;durP1;ratioP1;P1;durP2;ratioP2;P2;SDS_P1;SDS_P2;PMS_P1;PMS_P2;Temp;Humidity;BMP_temperature;BMP_pressure;BME280_temperature;BME280_humidity;BME280_pressure;Samples;Min_cycle;Max_cycle;Signal;HPM_P1;HPM_P2
2021/05/21 00:00:35;;;;;;;1.02;0.80;;;14.90;99.90;;;;;;4993239;28;20585;-78
2021/05/21 00:03:01;;;;;;;2.22;1.00;;;14.80;99.90;;;;;;4994006;28;20173;-79
2021/05/21 00:05:28;;;;;;;1.95;1.02;;;14.80;99.90;;;;;;4993866;28;20614;-78
2021/05/21 00:07:53;;;;;;;0.80;0.77;;;14.90;99.90;;;;;;4993588;28;20209;-78
2021/05/21 00:10:19;;;;;;;4.13;1.20;;;15.00;99.90;;;;;;4992693;28;20169;-78
2021/05/21 00:12:44;;;;;;;15.98;1.15;;;15.10;99.90;;;;;;4992286;28;20225;-79
2021/05/21 00:15:10;;;;;;;3.30;1.13;;;15.10;99.90;;;;;;4993539;28;20165;-78
2021/05/21 00:17:36;;;;;;;1.80;1.00;;;15.10;99.90;;;;;;4993959;28;20336;-78
2021/05/21 00:20:03;;;;;;;3.03;1.10;;;15.00;99.90;;;;;;4994100;28;20212;-79
2021/05/21 00:22:28;;;;;;;1.33;0.95;;;15.00;99.90;;;;;;4993754;28;20177;-78
2021/05/21 00:24:54;;;;;;;1.33;1.20;;;14.90;99.90;;;;;;4993252;28;20165;-79
2021/05/21 00:27:20;;;;;;;2.17;1.30;;;14.90;99.90;;;;;;4993245;28;20229;-78
2021/05/21 00:29:45;;;;;;;1.90;1.25;;;14.80;99.90;;;;;;4993655;28;20201;-78
2021/05/21 00:32:11;;;;;;;1.23;0.88;;;14.70;99.90;;;;;;4993494;28;20192;-78
2021/05/21 00:34:36;;;;;;;1.58;1.27;;;14.90;99.90;;;;;;4993322;28;20285;-79
2021/05/21 00:37:02;;;;;;;1.63;1.23;;;14.80;99.90;;;;;;4993383;28;20648;-78
2021/05/21 00:39:27;;;;;;;4.15;1.10;;;14.60;99.90;;;;;;4993252;28;20555;-78
2021/05/21 00:41:53;;;;;;;4.55;1.27;;;14.80;99.90;;;;;;4993358;28;20231;-79
2021/05/21 00:44:19;;;;;;;2.08;0.77;;;14.80;99.90;;;;;;4993100;28;20169;-78
2021/05/21 00:46:45;;;;;;;6.03;1.17;;;14.70;99.90;;;;;;4993201;28;20232;-78
2021/05/21 00:49:10;;;;;;;1.80;1.00;;;14.70;99.90;;;;;;4992899;28;20243;-78
2021/05/21 00:51:36;;;;;;;1.60;1.10;;;14.70;99.90;;;;;;4993328;28;20177;-78
2021/05/21 00:54:02;;;;;;;4.18;1.05;;;14.80;99.90;;;;;;4992987;28;20650;-79
2021/05/21 00:56:29;;;;;;;1.13;0.98;;;14.90;99.90;;;;;;4993135;28;20172;-79
2021/05/21 00:58:57;;;;;;;1.20;1.10;;;14.90;99.90;;;;;;4992847;28;20188;-78
2021/05/21 01:01:24;;;;;;;4.70;1.20;;;15.10;99.90;;;;;;4993228;28;20164;-78
2021/05/21 01:03:49;;;;;;;2.30;0.90;;;15.10;99.90;;;;;;4993170;28;20175;-78
2021/05/21 01:06:15;;;;;;;3.60;0.93;;;15.10;99.90;;;;;;4992962;28;20173;-78
2021/05/21 01:08:41;;;;;;;1.08;0.98;;;14.90;99.90;;;;;;4992862;28;20196;-78
2021/05/21 01:11:07;;;;;;;5.15;1.20;;;14.80;99.90;;;;;;4993148;28;20617;-79
2021/05/21 01:13:34;;;;;;;1.75;1.05;;;14.80;99.90;;;;;;4991788;28;20657;-78
2021/05/21 01:16:00;;;;;;;8.07;0.88;;;14.80;99.90;;;;;;4993062;28;20633;-78
2021/05/21 01:18:26;;;;;;;4.13;1.63;;;14.80;99.90;;;;;;4992827;28;20657;-78
2021/05/21 01:20:52;;;;;;;2.10;0.82;;;14.80;99.90;;;;;;4992778;28;20161;-78
2021/05/21 01:23:17;;;;;;;2.70;1.17;;;14.80;99.90;;;;;;4991439;28;20181;-78
2021/05/21 01:25:43;;;;;;;2.30;0.75;;;14.80;99.90;;;;;;4993310;28;20161;-78
2021/05/21 01:28:11;;;;;;;1.45;0.77;;;14.90;99.90;;;;;;4995016;28;20204;-78
2021/05/21 01:30:36;;;;;;;1.17;0.85;;;14.80;99.90;;;;;;4996909;28;20636;-77
2021/05/21 01:33:08;;;;;;;3.17;0.63;;;14.80;99.90;;;;;;4996675;28;20170;-78
2021/05/21 01:35:34;;;;;;;1.13;0.52;;;14.80;99.90;;;;;;4996500;28;20811;-80
2021/05/21 01:38:00;;;;;;;2.72;0.60;;;14.80;99.90;;;;;;4997226;28;20267;-78
2021/05/21 01:40:28;;;;;;;2.92;0.57;;;14.80;99.90;;;;;;4996692;28;20189;-80
2021/05/21 01:42:59;;;;;;;2.03;0.57;;;14.70;99.90;;;;;;4997126;28;20227;-80
2021/05/21 01:45:25;;;;;;;2.30;0.68;;;14.70;99.90;;;;;;4997535;28;20172;-80
2021/05/21 01:47:51;;;;;;;5.40;0.77;;;14.70;99.90;;;;;;4996808;28;20212;-78
2021/05/21 01:50:16;;;;;;;10.75;0.73;;;14.70;99.90;;;;;;4996557;28;20259;-79
2021/05/21 01:52:43;;;;;;;2.45;0.80;;;14.60;99.90;;;;;;4995222;28;20528;-79
2021/05/21 01:55:09;;;;;;;6.07;0.90;;;14.60;99.90;;;;;;4996682;28;20157;-79
2021/05/21 01:57:38;;;;;;;1.27;0.70;;;14.60;99.90;;;;;;4995726;28;20215;-80
2021/05/21 02:00:06;;;;;;;4.95;1.02;;;14.60;99.90;;;;;;4996153;28;20517;-79
2021/05/21 02:02:31;;;;;;;1.33;0.52;;;14.60;99.90;;;;;;4996680;28;20568;-79
2021/05/21 02:04:57;;;;;;;3.30;0.60;;;14.60;99.90;;;;;;4996595;28;20162;-79
2021/05/21 02:07:23;;;;;;;1.70;0.85;;;14.60;99.90;;;;;;4996530;28;20201;-79
2021/05/21 02:09:57;;;;;;;3.17;0.65;;;14.60;99.90;;;;;;4996758;28;20567;-80
2021/05/21 02:12:24;;;;;;;2.53;0.80;;;14.60;99.90;;;;;;4995890;28;20597;-80
2021/05/21 02:14:50;;;;;;;4.70;0.95;;;14.60;99.90;;;;;;4995828;28;20513;-79
2021/05/21 02:17:16;;;;;;;2.13;0.60;;;14.50;99.90;;;;;;4996859;28;20184;-79
2021/05/21 02:19:42;;;;;;;1.95;0.65;;;14.40;99.90;;;;;;4995680;28;20180;-80
2021/05/21 02:22:08;;;;;;;2.15;0.88;;;14.40;99.90;;;;;;4996834;28;20558;-79
2021/05/21 02:24:35;;;;;;;4.80;0.80;;;14.40;99.90;;;;;;4994993;28;20741;-80
2021/05/21 02:27:01;;;;;;;2.60;1.67;;;14.50;99.90;;;;;;4994891;28;20235;-79
2021/05/21 02:29:27;;;;;;;9.88;2.28;;;14.50;99.90;;;;;;4994529;28;20185;-80
2021/05/21 02:31:53;;;;;;;0.57;0.50;;;14.40;99.90;;;;;;4995947;28;20173;-79
2021/05/21 02:34:18;;;;;;;1.27;0.98;;;14.40;99.90;;;;;;4995571;28;20170;-79
2021/05/21 02:36:44;;;;;;;2.92;0.95;;;14.30;99.90;;;;;;4995422;28;20177;-80
2021/05/21 02:39:09;;;;;;;3.97;1.20;;;14.20;99.90;;;;;;4994159;28;20208;-80
2021/05/21 02:41:35;;;;;;;4.68;1.65;;;14.30;99.90;;;;;;4995422;28;20176;-79
2021/05/21 02:44:00;;;;;;;9.07;5.10;;;14.30;99.90;;;;;;4995247;28;20186;-80
2021/05/21 02:46:26;;;;;;;10.32;3.70;;;14.30;99.90;;;;;;4993744;28;20693;-79
2021/05/21 02:48:52;;;;;;;11.15;5.00;;;14.40;99.90;;;;;;4995249;28;20200;-79
2021/05/21 02:51:17;;;;;;;18.20;12.27;;;14.50;99.90;;;;;;4995321;28;20165;-80
2021/05/21 02:53:43;;;;;;;34.28;16.83;;;14.40;99.90;;;;;;4995211;28;20200;-80
2021/05/21 02:56:09;;;;;;;19.65;12.32;;;14.30;99.90;;;;;;4995282;28;20172;-80
2021/05/21 02:58:34;;;;;;;21.70;6.55;;;14.30;99.90;;;;;;4994915;28;20185;-79
2021/05/21 03:01:00;;;;;;;4.15;2.88;;;14.30;99.90;;;;;;4994751;28;20588;-79
2021/05/21 03:03:25;;;;;;;2.78;1.90;;;14.20;99.90;;;;;;4993732;28;20177;-80
2021/05/21 03:05:51;;;;;;;4.75;1.55;;;14.20;99.90;;;;;;4995358;28;20527;-79
2021/05/21 03:08:16;;;;;;;3.30;1.00;;;14.20;99.90;;;;;;4995022;28;20219;-80
2021/05/21 03:10:42;;;;;;;2.13;0.82;;;14.20;99.90;;;;;;4994182;28;20569;-80
2021/05/21 03:13:07;;;;;;;4.85;0.98;;;14.10;99.90;;;;;;4994879;28;20165;-79
2021/05/21 03:15:33;;;;;;;2.35;0.93;;;14.20;99.90;;;;;;4994885;28;20256;-79
2021/05/21 03:17:59;;;;;;;2.47;0.82;;;14.40;99.90;;;;;;4993361;28;20192;-80
2021/05/21 03:20:25;;;;;;;6.03;1.08;;;14.30;99.90;;;;;;4993576;28;20626;-80
2021/05/21 03:22:51;;;;;;;6.90;1.20;;;14.20;99.90;;;;;;4994876;28;20178;-80
2021/05/21 03:25:16;;;;;;;2.28;1.05;;;14.30;99.90;;;;;;4994798;28;20165;-81
2021/05/21 03:27:42;;;;;;;4.03;0.88;;;14.40;99.90;;;;;;4994285;28;20209;-82
2021/05/21 03:30:10;;;;;;;5.18;1.20;;;14.40;99.90;;;;;;4994555;28;20613;-80
2021/05/21 03:32:36;;;;;;;11.98;1.33;;;14.20;99.90;;;;;;4993261;28;20185;-80
2021/05/21 03:35:01;;;;;;;4.85;1.23;;;14.00;99.90;;;;;;4994663;28;20196;-80
2021/05/21 03:37:27;;;;;;;1.63;0.90;;;14.00;99.90;;;;;;4994585;28;20169;-80
2021/05/21 03:39:54;;;;;;;3.05;1.02;;;13.90;99.90;;;;;;4993395;28;20724;-80
2021/05/21 03:42:19;;;;;;;8.80;1.27;;;14.00;99.90;;;;;;4993465;28;20208;-80
2021/05/21 03:44:45;;;;;;;6.20;1.08;;;14.00;99.90;;;;;;4994398;28;20652;-80
2021/05/21 03:47:11;;;;;;;3.75;1.58;;;14.00;99.90;;;;;;4994329;28;20209;-79
2021/05/21 03:49:37;;;;;;;7.50;1.45;;;13.90;99.90;;;;;;4994093;28;20196;-80
2021/05/21 03:52:03;;;;;;;8.73;1.27;;;13.90;99.90;;;;;;4994478;28;20650;-79
2021/05/21 03:54:29;;;;;;;9.43;1.77;;;13.70;99.90;;;;;;4994695;28;20162;-80
2021/05/21 03:56:55;;;;;;;5.32;0.85;;;13.80;99.90;;;;;;4994608;28;20645;-79
2021/05/21 03:59:20;;;;;;;2.55;1.40;;;13.90;99.90;;;;;;4994133;28;20228;-79
2021/05/21 04:01:49;;;;;;;4.38;1.13;;;14.00;99.90;;;;;;4994508;28;20238;-80
2021/05/21 04:04:15;;;;;;;3.75;1.20;;;14.00;99.90;;;;;;4993187;28;20195;-80
2021/05/21 04:06:41;;;;;;;6.13;1.20;;;13.90;99.90;;;;;;4993950;28;20203;-80
2021/05/21 04:09:07;;;;;;;5.03;1.17;;;13.90;99.90;;;;;;4994633;28;20189;-81
2021/05/21 04:11:35;;;;;;;4.60;0.95;;;13.80;99.90;;;;;;4994558;28;20551;-83
2021/05/21 04:14:04;;;;;;;4.18;1.30;;;13.70;99.90;;;;;;4994045;28;20252;-80
2021/05/21 04:16:30;;;;;;;3.65;1.40;;;13.70;99.90;;;;;;4993795;28;20634;-79
2021/05/21 04:18:57;;;;;;;5.75;1.15;;;13.70;99.90;;;;;;4993986;28;20177;-79
2021/05/21 04:21:23;;;;;;;4.45;1.05;;;13.80;99.90;;;;;;4994391;28;20165;-78
2021/05/21 04:23:48;;;;;;;3.63;1.10;;;13.90;99.90;;;;;;4994141;28;20180;-80
2021/05/21 04:26:17;;;;;;;2.95;1.42;;;14.00;99.90;;;;;;4994325;28;20178;-82
2021/05/21 04:28:47;;;;;;;2.30;1.08;;;14.00;99.90;;;;;;4993664;28;20276;-79
2021/05/21 04:31:13;;;;;;;2.22;0.93;;;14.00;99.90;;;;;;4992679;28;20181;-80
2021/05/21 04:33:39;;;;;;;11.77;1.50;;;14.00;99.90;;;;;;4992792;28;20260;-79
2021/05/21 04:36:05;;;;;;;8.90;1.38;;;13.90;99.90;;;;;;4994021;28;20577;-79
2021/05/21 04:38:31;;;;;;;1.90;1.05;;;13.90;99.90;;;;;;4993711;28;20189;-79
2021/05/21 04:40:56;;;;;;;9.32;1.67;;;13.90;99.90;;;;;;4994332;28;20169;-81
2021/05/21 04:43:26;;;;;;;8.90;1.38;;;13.70;99.90;;;;;;4993475;28;20272;-80
2021/05/21 04:45:53;;;;;;;7.05;1.40;;;13.60;99.90;;;;;;4993194;28;20161;-80
2021/05/21 04:48:20;;;;;;;3.28;1.20;;;13.50;99.90;;;;;;4993602;28;20316;-80
2021/05/21 04:50:46;;;;;;;4.38;1.42;;;13.50;99.90;;;;;;4993421;28;20187;-79
2021/05/21 04:53:12;;;;;;;6.22;1.30;;;13.50;99.90;;;;;;4993422;28;20185;-80
2021/05/21 04:55:40;;;;;;;4.38;1.20;;;13.60;99.90;;;;;;4993588;28;20189;-80
2021/05/21 04:58:06;;;;;;;2.20;1.10;;;13.60;99.90;;;;;;4992120;28;20663;-80
2021/05/21 05:00:31;;;;;;;8.05;1.83;;;13.60;99.90;;;;;;4993357;28;20281;-80
2021/05/21 05:03:02;;;;;;;10.30;1.85;;;13.70;99.90;;;;;;4993403;28;20169;-79
2021/05/21 05:05:28;;;;;;;4.72;1.70;;;13.70;99.90;;;;;;4992151;28;20169;-80
2021/05/21 05:07:53;;;;;;;9.88;2.00;;;13.60;99.90;;;;;;4993601;28;20305;-79
2021/05/21 05:10:19;;;;;;;6.43;1.20;;;13.40;99.90;;;;;;4994026;28;20192;-80
2021/05/21 05:12:45;;;;;;;10.60;1.60;;;13.40;99.90;;;;;;4993493;28;20173;-79
2021/05/21 05:15:10;;;;;;;8.70;2.05;;;13.40;99.90;;;;;;4993322;28;20169;-79
2021/05/21 05:17:36;;;;;;;5.47;1.23;;;13.20;99.90;;;;;;4993040;28;20637;-79
2021/05/21 05:20:03;;;;;;;7.78;2.00;;;13.30;99.90;;;;;;4993125;28;20228;-79
2021/05/21 05:22:28;;;;;;;4.65;1.60;;;13.30;99.90;;;;;;4992722;28;20177;-79
2021/05/21 05:24:54;;;;;;;19.60;2.20;;;13.20;99.90;;;;;;4992964;28;20580;-79
2021/05/21 05:27:20;;;;;;;9.45;2.22;;;13.10;99.90;;;;;;4993120;28;20304;-81
2021/05/21 05:29:47;;;;;;;5.43;1.85;;;13.30;99.90;;;;;;4992502;28;20169;-80
2021/05/21 05:32:13;;;;;;;9.50;2.10;;;13.50;99.90;;;;;;4992550;28;20220;-80
2021/05/21 05:34:39;;;;;;;17.48;2.33;;;13.60;99.90;;;;;;4991052;28;20261;-80
2021/05/21 05:37:05;;;;;;;11.95;2.28;;;13.50;99.90;;;;;;4992384;28;20180;-77
2021/05/21 05:39:30;;;;;;;16.65;1.80;;;13.70;99.90;;;;;;4992226;28;20189;-79
2021/05/21 05:41:56;;;;;;;6.72;1.63;;;13.80;99.90;;;;;;4991165;28;20173;-78
2021/05/21 05:44:21;;;;;;;10.13;1.83;;;14.10;99.90;;;;;;4992592;28;20528;-80
2021/05/21 05:46:47;;;;;;;40.00;3.20;;;13.80;99.90;;;;;;4992343;28;20240;-79
2021/05/21 05:49:13;;;;;;;11.23;2.03;;;13.70;99.90;;;;;;4992461;28;20285;-79
2021/05/21 05:51:40;;;;;;;10.25;1.73;;;13.60;99.90;;;;;;4992117;28;20614;-79
2021/05/21 05:54:05;;;;;;;8.45;1.55;;;13.70;99.90;;;;;;4992607;28;20164;-79
2021/05/21 05:56:31;;;;;;;9.90;1.90;;;13.70;99.90;;;;;;4993047;28;20185;-79
2021/05/21 05:58:57;;;;;;;12.90;2.10;;;13.80;99.90;;;;;;4992164;28;20305;-79
2021/05/21 06:01:22;;;;;;;9.38;1.92;;;13.80;99.90;;;;;;4992894;28;20173;-79
2021/05/21 06:03:49;;;;;;;15.07;1.83;;;13.80;99.90;;;;;;4992333;28;20172;-79
2021/05/21 06:06:14;;;;;;;14.23;1.73;;;13.90;99.90;;;;;;4993918;28;20170;-78
2021/05/21 06:08:40;;;;;;;15.52;2.08;;;13.90;99.90;;;;;;4992454;28;20215;-81
2021/05/21 06:11:05;;;;;;;7.32;1.95;;;14.00;99.90;;;;;;4992793;28;20178;-79
2021/05/21 06:13:31;;;;;;;16.60;2.10;;;14.40;99.90;;;;;;4995170;28;20197;-79
2021/05/21 06:15:57;;;;;;;39.88;4.53;;;14.50;99.90;;;;;;4996062;28;20659;-79
2021/05/21 06:18:22;;;;;;;27.80;2.85;;;14.80;99.90;;;;;;4995631;28;20244;-79
2021/05/21 06:20:48;;;;;;;34.92;3.00;;;14.90;99.90;;;;;;4995948;28;20165;-78
2021/05/21 06:23:15;;;;;;;47.00;6.45;;;14.70;99.90;;;;;;4995550;28;20568;-79
2021/05/21 06:28:10;;;;;;;17.98;3.17;;;14.60;99.90;;;;;;4995457;28;20224;-79
2021/05/21 06:30:37;;;;;;;17.70;3.33;;;14.60;99.90;;;;;;4993764;28;20169;-79
2021/05/21 06:33:03;;;;;;;11.20;2.28;;;14.80;99.90;;;;;;4995238;28;20180;-80
2021/05/21 06:35:29;;;;;;;17.85;2.88;;;14.80;99.90;;;;;;4995192;28;20173;-79
2021/05/21 06:37:55;;;;;;;12.18;2.28;;;14.90;99.90;;;;;;4993802;28;20339;-79
2021/05/21 06:40:21;;;;;;;7.82;2.00;;;15.30;99.90;;;;;;4994376;28;20204;-81
2021/05/21 06:42:46;;;;;;;12.50;2.65;;;15.60;99.90;;;;;;4993232;28;20713;-79
2021/05/21 06:45:13;;;;;;;12.57;2.88;;;15.80;99.90;;;;;;4995136;28;20187;-80
2021/05/21 06:47:38;;;;;;;15.88;3.53;;;15.50;99.90;;;;;;4992252;28;20759;-79
2021/05/21 06:50:05;;;;;;;13.45;2.40;;;15.40;99.90;;;;;;4989726;28;20169;-81
2021/05/21 06:52:30;;;;;;;16.92;2.38;;;15.20;99.90;;;;;;4985108;28;20185;-81
2021/05/21 06:54:56;;;;;;;20.30;2.78;;;15.10;99.90;;;;;;4997931;28;20173;-81
2021/05/21 06:57:22;;;;;;;20.48;2.65;;;15.20;99.90;;;;;;4993672;28;20290;-81
2021/05/21 06:59:48;;;;;;;13.82;2.22;;;15.40;99.90;;;;;;4999179;28;20184;-81
2021/05/21 07:02:16;;;;;;;13.93;1.58;;;15.60;99.90;;;;;;5000972;28;20193;-80
2021/05/21 07:04:43;;;;;;;19.23;2.80;;;15.40;99.90;;;;;;4985007;28;20625;-81
2021/05/21 07:07:08;;;;;;;26.50;2.33;;;15.10;99.90;;;;;;5014079;28;20189;-80
2021/05/21 07:09:34;;;;;;;14.70;2.85;;;15.50;99.90;;;;;;5017991;28;20213;-79
2021/05/21 07:12:00;;;;;;;43.70;5.43;;;15.60;99.90;;;;;;5016756;28;20243;-80
2021/05/21 07:14:26;;;;;;;12.13;2.20;;;15.90;99.90;;;;;;4994693;28;20603;-79
2021/05/21 07:16:52;;;;;;;18.02;2.45;;;16.60;99.90;;;;;;4994302;28;20173;-80
2021/05/21 07:19:18;;;;;;;23.08;3.60;;;16.80;99.90;;;;;;4995097;28;20188;-79
2021/05/21 07:21:47;;;;;;;8.23;2.50;;;17.20;99.90;;;;;;4995365;28;20221;-79
2021/05/21 07:24:13;;;;;;;43.95;4.10;;;17.10;99.90;;;;;;4993691;28;20288;-79
2021/05/21 07:26:39;;;;;;;14.13;3.78;;;17.40;99.90;;;;;;4994523;28;20280;-80
2021/05/21 07:29:06;;;;;;;10.60;2.30;;;18.00;99.90;;;;;;4993518;28;20687;-78
2021/05/21 07:31:32;;;;;;;13.48;2.88;;;18.20;99.90;;;;;;4994863;28;20162;-78
2021/05/21 07:33:59;;;;;;;7.00;1.95;;;17.60;99.90;;;;;;4994767;28;20257;-80
2021/05/21 07:36:28;;;;;;;18.55;3.03;;;17.80;99.90;;;;;;4994607;28;20177;-81
2021/05/21 07:38:55;;;;;;;44.80;4.63;;;18.20;99.90;;;;;;4994382;28;20638;-79
2021/05/21 07:41:23;;;;;;;40.00;3.40;;;17.90;99.90;;;;;;4994449;28;20652;-79
2021/05/21 07:43:49;;;;;;;22.17;2.72;;;17.80;99.90;;;;;;4994001;28;20597;-80
2021/05/21 07:46:15;;;;;;;23.38;2.53;;;17.60;99.90;;;;;;4994269;28;20169;-80
2021/05/21 07:48:41;;;;;;;15.55;2.40;;;17.10;99.90;;;;;;4994180;28;20208;-80
2021/05/21 07:51:07;;;;;;;18.67;3.15;;;17.00;99.90;;;;;;4992590;28;20173;-80
2021/05/21 07:53:33;;;;;;;49.25;3.35;;;16.80;99.90;;;;;;4994066;28;20187;-80
2021/05/21 07:56:00;;;;;;;21.58;2.90;;;16.40;99.90;;;;;;4994072;28;20166;-80
2021/05/21 07:58:26;;;;;;;11.50;2.15;;;16.10;99.90;;;;;;4993350;28;20255;-80
2021/05/21 08:00:52;;;;;;;16.55;2.13;;;16.00;99.90;;;;;;4993674;28;20173;-81
2021/05/21 08:03:21;;;;;;;12.93;1.95;;;15.80;99.90;;;;;;4988223;28;20181;-80
2021/05/21 08:05:47;;;;;;;8.95;2.35;;;15.70;99.90;;;;;;4987920;28;20188;-80
2021/05/21 08:08:26;;;;;;;14.57;2.40;;;15.60;99.90;;;;;;4993552;28;20571;-80
2021/05/21 08:10:57;;;;;;;10.25;2.08;;;15.50;99.90;;;;;;4993839;28;20176;-80
2021/05/21 08:13:22;;;;;;;6.82;2.60;;;15.60;99.90;;;;;;4994019;28;20172;-81
2021/05/21 08:15:48;;;;;;;7.15;1.95;;;15.60;99.90;;;;;;4993494;28;20549;-80
2021/05/21 08:18:14;;;;;;;14.93;3.25;;;15.60;99.90;;;;;;4992201;28;20185;-81
2021/05/21 08:20:42;;;;;;;21.70;2.17;;;15.80;99.90;;;;;;4993728;28;20165;-80
2021/05/21 08:23:08;;;;;;;17.13;2.28;;;16.00;99.90;;;;;;4992270;28;20528;-80
2021/05/21 08:25:34;;;;;;;44.25;5.57;;;15.90;99.90;;;;;;4991945;28;20169;-79
2021/05/21 08:27:59;;;;;;;15.48;3.42;;;15.80;99.90;;;;;;4992555;28;20208;-80
2021/05/21 08:30:25;;;;;;;17.83;2.50;;;16.10;99.90;;;;;;4991919;28;20166;-80
2021/05/21 08:32:52;;;;;;;14.77;2.55;;;16.40;99.90;;;;;;4991986;28;20199;-80
2021/05/21 08:35:18;;;;;;;14.57;2.05;;;16.30;99.90;;;;;;4980947;28;20228;-81
2021/05/21 08:37:44;;;;;;;20.80;2.88;;;16.40;99.90;;;;;;4988565;28;20197;-81
2021/05/21 08:40:13;;;;;;;21.67;3.00;;;16.40;99.90;;;;;;4973722;28;20169;-80
2021/05/21 08:42:40;;;;;;;13.50;2.95;;;16.70;99.90;;;;;;4972032;28;20270;-78
2021/05/21 08:45:08;;;;;;;24.25;3.53;;;17.20;99.90;;;;;;4978281;28;20166;-78
2021/05/21 08:47:35;;;;;;;19.00;3.15;;;17.20;99.90;;;;;;4992606;28;20256;-78
2021/05/21 08:50:06;;;;;;;6.60;1.92;;;17.00;99.90;;;;;;4992745;28;20176;-78
2021/05/21 08:52:32;;;;;;;25.20;3.17;;;17.10;99.90;;;;;;4992526;28;20161;-77
2021/05/21 08:54:58;;;;;;;38.53;3.50;;;17.30;99.90;;;;;;4988487;28;20178;-78
2021/05/21 08:57:24;;;;;;;23.48;3.38;;;17.20;99.90;;;;;;4988754;28;20196;-79
2021/05/21 08:59:49;;;;;;;49.08;6.90;;;17.30;99.90;;;;;;4991443;28;21311;-78
2021/05/21 09:02:29;;;;;;;18.38;2.75;;;17.20;99.90;;;;;;5007442;28;20216;-79
2021/05/21 09:04:57;;;;;;;17.23;2.53;;;17.20;99.90;;;;;;4985671;28;20264;-78
2021/05/21 09:07:25;;;;;;;57.60;5.43;;;17.10;99.90;;;;;;4984343;28;20213;-79
2021/05/21 09:09:52;;;;;;;37.45;4.93;;;17.30;99.90;;;;;;4991523;28;20161;-78
2021/05/21 09:12:18;;;;;;;29.85;3.25;;;17.10;99.90;;;;;;4985755;28;20653;-78
2021/05/21 09:15:08;;;;;;;23.02;3.15;;;17.10;99.90;;;;;;4975181;28;20268;-79
2021/05/21 09:17:34;;;;;;;14.57;2.17;;;17.00;99.90;;;;;;4990954;28;20184;-79
2021/05/21 09:20:01;;;;;;;23.95;2.55;;;17.30;99.90;;;;;;4992087;28;20197;-79
2021/05/21 09:22:26;;;;;;;34.13;3.22;;;17.70;99.90;;;;;;4991628;28;20180;-79
2021/05/21 09:24:52;;;;;;;14.45;2.50;;;18.10;99.90;;;;;;4976163;28;20220;-78
2021/05/21 09:27:19;;;;;;;12.65;2.30;;;18.10;99.90;;;;;;4991552;28;20267;-78
2021/05/21 09:29:49;;;;;;;6.15;1.70;;;18.30;99.90;;;;;;4990786;28;20538;-78
2021/05/21 09:32:23;;;;;;;24.98;4.20;;;18.40;99.90;;;;;;4990643;28;20241;-79
2021/05/21 09:35:20;;;;;;;81.43;6.57;;;18.30;99.90;;;;;;4991554;28;20173;-79
2021/05/21 09:37:52;;;;;;;52.35;4.47;;;18.60;99.90;;;;;;4973211;28;20213;-79
2021/05/21 09:40:21;;;;;;;33.53;4.07;;;18.70;99.90;;;;;;4989493;28;20173;-80
2021/05/21 09:43:01;;;;;;;16.10;1.70;;;18.90;99.90;;;;;;5007076;28;20220;-79
2021/05/21 09:45:39;;;;;;;23.42;2.60;;;19.10;99.90;;;;;;4983135;28;20696;-79
2021/05/21 09:48:06;;;;;;;25.17;4.72;;;19.10;99.90;;;;;;4982007;28;20235;-78
2021/05/21 09:50:48;;;;;;;25.58;2.67;;;19.00;99.90;;;;;;4995851;28;20173;-79
2021/05/21 09:53:16;;;;;;;22.67;3.78;;;18.50;99.90;;;;;;4995960;28;20225;-78
2021/05/21 09:55:53;;;;;;;28.48;3.92;;;18.60;99.90;;;;;;4995924;28;20181;-77
2021/05/21 09:58:33;;;;;;;15.57;2.35;;;17.90;99.90;;;;;;4995652;28;20205;-78
2021/05/21 10:01:29;;;;;;;6.30;1.77;;;17.70;99.90;;;;;;4995983;28;20173;-78
2021/05/21 10:03:58;;;;;;;11.07;1.95;;;17.10;99.90;;;;;;4993739;28;20645;-79
2021/05/21 10:06:26;;;;;;;7.78;1.95;;;16.90;99.90;;;;;;4995857;28;20207;-78
2021/05/21 10:08:58;;;;;;;13.57;2.42;;;16.70;99.90;;;;;;4995583;28;20204;-79
2021/05/21 10:11:24;;;;;;;36.95;3.70;;;16.40;99.90;;;;;;4995622;28;20176;-79
2021/05/21 10:13:50;;;;;;;18.23;2.78;;;16.20;99.90;;;;;;4995666;28;20165;-78
2021/05/21 10:16:18;;;;;;;25.85;3.03;;;16.00;99.90;;;;;;4995703;28;20177;-79
2021/05/21 10:18:51;;;;;;;36.53;4.07;;;16.30;99.90;;;;;;4995583;28;20188;-80
2021/05/21 10:21:19;;;;;;;39.10;3.72;;;16.90;99.90;;;;;;4994938;28;20172;-78
2021/05/21 10:23:57;;;;;;;4.38;1.40;;;17.40;99.90;;;;;;4992964;28;20589;-80
2021/05/21 10:26:33;;;;;;;36.38;3.40;;;17.50;99.90;;;;;;4995568;28;20659;-81
2021/05/21 10:29:02;;;;;;;20.20;2.58;;;17.40;99.90;;;;;;4995257;28;20204;-81
2021/05/21 10:31:28;;;;;;;5.57;1.75;;;17.20;99.90;;;;;;4995040;28;20173;-80
2021/05/21 10:34:14;;;;;;;13.65;1.55;;;17.10;99.90;;;;;;4993568;28;20181;-78
2021/05/21 10:36:40;;;;;;;17.20;2.33;;;16.90;99.90;;;;;;4995528;28;20173;-80
2021/05/21 10:39:08;;;;;;;17.30;2.38;;;16.90;99.90;;;;;;4994155;28;20390;-77
2021/05/21 10:41:35;;;;;;;12.07;1.83;;;17.10;99.90;;;;;;4990986;28;20285;-80
2021/05/21 10:44:16;;;;;;;7.43;2.20;;;17.10;99.90;;;;;;4995098;28;20193;-80
2021/05/21 10:46:42;;;;;;;6.75;1.63;;;17.20;99.90;;;;;;5010306;28;20587;-79
2021/05/21 10:49:25;;;;;;;10.80;2.25;;;17.20;99.90;;;;;;4994094;28;20196;-79
2021/05/21 10:51:56;;;;;;;10.18;1.35;;;17.40;99.90;;;;;;4994534;28;20267;-79
2021/05/21 10:54:31;;;;;;;15.43;2.15;;;17.90;99.90;;;;;;4994835;28;20170;-80
2021/05/21 10:57:14;;;;;;;12.75;2.13;;;18.20;99.90;;;;;;4996014;28;20190;-79
2021/05/21 10:59:52;;;;;;;26.42;2.70;;;18.20;99.90;;;;;;4992417;28;20224;-80
2021/05/21 11:02:25;;;;;;;6.93;2.08;;;18.30;99.90;;;;;;4994988;28;20165;-79
2021/05/21 11:04:54;;;;;;;10.20;1.80;;;18.60;99.90;;;;;;4994973;28;20248;-79
2021/05/21 11:07:40;;;;;;;11.05;1.75;;;18.80;99.90;;;;;;4994817;28;20201;-79
2021/05/21 11:10:33;;;;;;;8.98;1.60;;;19.00;99.90;;;;;;4994767;28;20165;-80
2021/05/21 11:13:10;;;;;;;6.95;1.95;;;18.60;99.90;;;;;;4994208;28;20165;-79
2021/05/21 11:15:51;;;;;;;13.32;2.58;;;18.50;99.90;;;;;;4992771;28;20551;-81
2021/05/21 11:18:17;;;;;;;16.50;2.78;;;18.60;99.90;;;;;;4992486;28;20188;-79
2021/05/21 11:21:08;;;;;;;20.65;2.00;;;18.80;99.90;;;;;;4993431;28;20188;-81
2021/05/21 11:23:38;;;;;;;5.00;1.23;;;18.40;99.90;;;;;;4994612;28;20181;-81
2021/05/21 11:26:16;;;;;;;3.45;1.33;;;18.20;99.90;;;;;;4994899;28;20157;-80
2021/05/21 11:28:56;;;;;;;15.50;1.60;;;18.10;99.90;;;;;;4992889;28;20224;-81
2021/05/21 11:31:28;;;;;;;6.28;1.40;;;18.20;99.90;;;;;;4994480;28;20169;-80
2021/05/21 11:33:57;;;;;;;4.32;1.27;;;18.40;99.90;;;;;;4987204;28;20176;-83
2021/05/21 11:36:24;;;;;;;3.88;1.30;;;18.70;99.90;;;;;;5002829;28;20184;-79
2021/05/21 11:38:51;;;;;;;8.90;1.48;;;18.80;99.90;;;;;;4992602;28;20193;-79
2021/05/21 11:41:18;;;;;;;6.25;1.27;;;18.80;99.90;;;;;;4995544;28;20165;-80
2021/05/21 11:43:46;;;;;;;28.55;2.75;;;18.70;99.90;;;;;;5011117;28;20169;-81
2021/05/21 11:46:17;;;;;;;6.30;1.45;;;18.80;99.90;;;;;;4994538;28;20220;-80
2021/05/21 11:48:44;;;;;;;6.72;1.75;;;18.90;99.90;;;;;;4994244;28;20305;-80
2021/05/21 11:51:16;;;;;;;9.02;1.95;;;18.60;99.90;;;;;;4994081;28;20203;-80
2021/05/21 11:54:04;;;;;;;14.95;2.30;;;18.30;99.90;;;;;;4994245;28;20256;-81
2021/05/21 11:56:36;;;;;;;10.40;1.80;;;18.00;99.90;;;;;;4993822;28;20211;-80
2021/05/21 11:59:06;;;;;;;7.97;1.38;;;18.20;99.90;;;;;;4994081;28;20562;-80
2021/05/21 12:01:33;;;;;;;11.75;1.98;;;18.40;99.90;;;;;;4992903;28;20256;-81
2021/05/21 12:04:04;;;;;;;8.85;1.52;;;18.60;99.90;;;;;;4994120;28;20165;-81
2021/05/21 12:06:30;;;;;;;9.88;1.80;;;18.80;99.90;;;;;;4994139;28;20184;-79
2021/05/21 12:08:56;;;;;;;6.97;1.75;;;19.00;99.90;;;;;;4993692;28;20213;-80
2021/05/21 12:11:24;;;;;;;16.35;1.75;;;18.70;99.90;;;;;;4993837;28;20626;-81
2021/05/21 12:13:50;;;;;;;9.40;1.75;;;18.50;99.90;;;;;;4993889;28;20654;-79
2021/05/21 12:16:20;;;;;;;12.82;1.88;;;18.70;99.90;;;;;;4993923;28;20181;-78
2021/05/21 12:18:46;;;;;;;3.65;1.38;;;18.80;99.90;;;;;;4994158;28;20645;-80
2021/05/21 12:21:23;;;;;;;11.10;1.23;;;18.60;99.90;;;;;;4992218;28;20169;-79
2021/05/21 12:23:51;;;;;;;20.95;1.67;;;18.70;99.90;;;;;;4993257;28;20172;-79
2021/05/21 12:26:21;;;;;;;52.30;4.25;;;18.50;99.90;;;;;;4993644;28;20165;-81
2021/05/21 12:28:48;;;;;;;41.35;5.10;;;18.60;99.90;;;;;;5008159;28;20224;-80
2021/05/21 12:31:14;;;;;;;20.05;2.50;;;18.90;99.90;;;;;;4991659;28;20293;-80
2021/05/21 12:33:41;;;;;;;58.70;4.95;;;18.90;99.90;;;;;;4993225;28;20248;-81
2021/05/21 12:36:14;;;;;;;15.10;1.75;;;18.90;99.90;;;;;;4993166;28;20165;-81
2021/05/21 12:38:49;;;;;;;12.82;1.63;;;18.90;99.90;;;;;;4993075;28;20189;-79
2021/05/21 12:41:15;;;;;;;6.57;1.70;;;19.00;99.90;;;;;;4993149;28;20173;-79
2021/05/21 12:43:41;;;;;;;9.77;1.33;;;19.20;99.90;;;;;;4992019;28;20650;-79
2021/05/21 12:46:07;;;;;;;29.15;2.55;;;19.10;99.90;;;;;;4992553;28;20171;-80
2021/05/21 12:48:44;;;;;;;9.07;1.58;;;18.90;99.30;;;;;;4990926;28;20307;-79